createdAt,value
2018-05-02T00:01:44.405Z,2.33
2018-05-02T00:04:17.033Z,2.03
2018-05-02T00:06:49.629Z,1.90
2018-05-02T00:09:22.246Z,2.63
2018-05-02T00:11:54.839Z,2.30
2018-05-02T00:14:27.447Z,2.00
2018-05-02T00:17:00.047Z,1.97
2018-05-02T00:19:32.674Z,2.60
2018-05-02T00:22:05.264Z,2.20
2018-05-02T00:24:37.876Z,2.10
2018-05-02T00:27:10.464Z,2.60
2018-05-02T00:29:43.080Z,2.43
2018-05-02T00:32:15.673Z,2.40
2018-05-02T00:34:48.313Z,2.10
2018-05-02T00:37:20.900Z,2.47
2018-05-02T00:39:53.576Z,2.70
2018-05-02T00:42:26.173Z,2.40
2018-05-02T00:44:59.621Z,2.90
2018-05-02T00:47:32.152Z,2.30
2018-05-02T00:50:04.793Z,2.60
2018-05-02T00:52:37.396Z,2.50
2018-05-02T00:55:10.024Z,2.87
2018-05-02T00:57:42.608Z,3.33
2018-05-02T01:00:15.236Z,2.90
2018-05-02T01:02:48.586Z,2.70
2018-05-02T01:05:21.196Z,2.60
2018-05-02T01:07:53.779Z,2.97
2018-05-02T01:10:26.393Z,2.60
2018-05-02T01:12:58.974Z,2.83
2018-05-02T01:15:31.601Z,2.80
2018-05-02T01:18:04.952Z,2.53
2018-05-02T01:20:37.566Z,3.00
2018-05-02T01:23:10.154Z,3.10
2018-05-02T01:25:42.784Z,2.80
2018-05-02T01:28:16.169Z,2.73
2018-05-02T01:30:48.782Z,2.40
2018-05-02T01:33:22.157Z,2.70
2018-05-02T01:35:54.815Z,2.57
2018-05-02T01:38:27.402Z,2.60
2018-05-02T01:41:00.018Z,2.27
2018-05-02T01:43:32.612Z,2.90
2018-05-02T01:46:05.252Z,2.87
2018-05-02T01:48:38.616Z,2.70
2018-05-02T01:51:11.248Z,3.47
2018-05-02T01:53:44.628Z,2.77
2018-05-02T01:56:17.239Z,2.80
2018-05-02T01:58:50.617Z,2.87
2018-05-02T02:01:23.251Z,2.90
2018-05-02T02:03:56.604Z,2.70
2018-05-02T02:06:29.227Z,2.77
2018-05-02T02:09:01.811Z,3.00
2018-05-02T02:11:34.432Z,2.80
2018-05-02T02:14:07.791Z,2.60
2018-05-02T02:16:40.412Z,2.93
2018-05-02T02:19:13.029Z,2.70
2018-05-02T02:21:45.656Z,2.93
2018-05-02T02:24:18.260Z,2.70
2018-05-02T02:26:50.877Z,2.90
2018-05-02T02:29:23.476Z,3.10
2018-05-02T02:31:56.118Z,2.93
2018-05-02T02:34:28.708Z,2.90
2018-05-02T02:37:01.332Z,2.90
2018-05-02T02:39:33.923Z,2.90
2018-05-02T02:42:06.544Z,3.30
2018-05-02T02:44:39.138Z,3.10
2018-05-02T02:47:11.757Z,3.20
2018-05-02T02:49:44.366Z,2.70
2018-05-02T02:52:17.012Z,2.90
2018-05-02T02:54:50.374Z,2.50
2018-05-02T02:57:22.988Z,2.87
2018-05-02T02:59:55.584Z,3.10
2018-05-02T03:02:28.224Z,2.70
2018-05-02T03:05:00.833Z,3.20
2018-05-02T03:07:33.464Z,3.30
2018-05-02T03:10:06.082Z,3.30
2018-05-02T03:12:39.091Z,3.33
2018-05-02T03:15:11.689Z,3.17
2018-05-02T03:17:44.333Z,3.30
2018-05-02T03:20:16.940Z,3.07
2018-05-02T03:22:50.321Z,3.00
2018-05-02T03:25:22.919Z,3.07
2018-05-02T03:27:55.556Z,2.80
2018-05-02T03:30:28.158Z,2.90
2018-05-02T03:33:00.767Z,3.53
2018-05-02T03:35:33.355Z,3.43
2018-05-02T03:38:05.996Z,3.07
2018-05-02T03:40:39.356Z,3.47
2018-05-02T03:43:12.001Z,2.93
2018-05-02T03:45:45.360Z,2.90
2018-05-02T03:48:17.984Z,3.27
2018-05-02T03:50:50.576Z,3.40
2018-05-02T03:53:23.981Z,3.37
2018-05-02T03:55:56.575Z,3.70
2018-05-02T03:58:29.188Z,3.37
2018-05-02T04:01:14.470Z,3.73
2018-05-02T04:03:59.061Z,3.77
2018-05-02T04:06:43.494Z,3.70
2018-05-02T04:09:16.108Z,3.63
2018-05-02T04:11:48.703Z,4.20
2018-05-02T04:14:21.333Z,3.60
2018-05-02T04:16:53.940Z,4.93
2018-05-02T04:19:26.568Z,3.50
2018-05-02T04:21:59.937Z,3.30
2018-05-02T04:24:32.545Z,4.53
2018-05-02T04:27:05.149Z,4.40
2018-05-02T04:29:38.536Z,4.40
2018-05-02T04:32:11.128Z,3.60
2018-05-02T04:34:43.773Z,4.00
2018-05-02T04:37:16.356Z,3.90
2018-05-02T04:39:48.964Z,3.93
2018-05-02T04:42:21.561Z,3.73
2018-05-02T04:44:54.200Z,3.93
2018-05-02T04:47:26.790Z,4.30
2018-05-02T04:49:59.400Z,4.37
2018-05-02T04:52:32.760Z,4.40
2018-05-02T04:55:05.385Z,5.07
2018-05-02T04:57:37.979Z,4.07
2018-05-02T05:00:11.379Z,4.47
2018-05-02T05:02:43.965Z,4.97
2018-05-02T05:05:16.596Z,4.77
2018-05-02T05:07:49.189Z,4.57
2018-05-02T05:10:21.800Z,4.50
2018-05-02T05:12:54.399Z,4.63
2018-05-02T05:15:27.026Z,5.43
2018-05-02T05:17:59.615Z,5.13
2018-05-02T05:20:32.237Z,5.57
2018-05-02T05:23:04.840Z,4.33
2018-05-02T05:25:37.459Z,5.23
2018-05-02T05:30:52.884Z,5.47
2018-05-02T05:33:25.476Z,5.40
2018-05-02T05:35:58.087Z,5.23
2018-05-02T05:38:30.684Z,5.07
2018-05-02T05:41:03.323Z,4.33
2018-05-02T05:43:35.991Z,5.70
2018-05-02T05:46:08.553Z,5.80
2018-05-02T05:48:41.154Z,5.70
2018-05-02T05:51:14.555Z,6.07
2018-05-02T05:53:47.148Z,5.83
2018-05-02T05:56:19.761Z,5.73
2018-05-02T05:58:53.119Z,5.57
2018-05-02T06:01:25.748Z,5.17
2018-05-02T06:03:58.348Z,7.90
2018-05-02T06:06:31.002Z,6.57
2018-05-02T06:09:03.595Z,6.20
2018-05-02T06:11:36.218Z,6.03
2018-05-02T06:14:09.580Z,7.27
2018-05-02T06:16:42.234Z,6.03
2018-05-02T06:19:14.833Z,5.73
2018-05-02T06:21:47.452Z,5.77
2018-05-02T06:24:20.053Z,5.27
2018-05-02T06:26:53.795Z,5.23
2018-05-02T06:29:26.441Z,5.40
2018-05-02T06:31:59.079Z,5.53
2018-05-02T06:34:31.678Z,5.83
2018-05-02T06:37:04.312Z,5.23
2018-05-02T06:39:36.907Z,5.10
2018-05-02T06:42:09.525Z,5.67
2018-05-02T06:44:42.117Z,5.40
2018-05-02T06:47:14.742Z,4.97
2018-05-02T06:49:49.105Z,4.80
2018-05-02T06:52:21.728Z,4.50
2018-05-02T06:54:54.328Z,3.70
2018-05-02T06:57:26.955Z,4.33
2018-05-02T07:00:00.324Z,4.10
2018-05-02T07:02:32.968Z,3.30
2018-05-02T07:05:05.564Z,3.37
2018-05-02T07:07:38.196Z,3.10
2018-05-02T07:10:10.792Z,2.90
2018-05-02T07:12:43.432Z,2.17
2018-05-02T07:15:16.840Z,2.07
2018-05-02T07:17:49.456Z,2.00
2018-05-02T07:20:22.103Z,2.23
2018-05-02T07:22:54.754Z,2.10
2018-05-02T07:25:27.355Z,2.40
2018-05-02T07:27:59.984Z,2.10
2018-05-02T07:30:33.366Z,2.10
2018-05-02T07:33:06.075Z,2.40
2018-05-02T07:35:38.616Z,2.60
2018-05-02T07:38:11.256Z,2.47
2018-05-02T07:40:43.854Z,2.30
2018-05-02T07:43:17.241Z,2.20
2018-05-02T07:45:49.835Z,2.97
2018-05-02T07:48:22.444Z,2.07
2018-05-02T07:50:55.808Z,2.30
2018-05-02T07:53:28.433Z,2.27
2018-05-02T07:56:01.053Z,2.43
2018-05-02T07:58:33.704Z,2.10
2018-05-02T08:01:06.361Z,2.17
2018-05-02T08:03:38.964Z,2.20
2018-05-02T08:06:11.565Z,2.63
2018-05-02T08:08:44.209Z,2.80
2018-05-02T08:11:17.572Z,2.10
2018-05-02T08:13:50.193Z,2.60
2018-05-02T08:16:23.564Z,2.47
2018-05-02T08:18:56.214Z,2.30
2018-05-02T08:21:28.815Z,2.40
2018-05-02T08:24:02.264Z,2.40
2018-05-02T08:26:34.864Z,2.40
2018-05-02T08:29:07.484Z,2.20
2018-05-02T08:31:40.087Z,2.53
2018-05-02T08:34:13.526Z,2.53
2018-05-02T08:36:46.129Z,2.63
2018-05-02T08:39:18.760Z,2.50
2018-05-02T08:41:51.363Z,2.33
2018-05-02T08:44:24.748Z,2.20
2018-05-02T08:46:57.353Z,2.60
2018-05-02T08:49:30.773Z,2.97
2018-05-02T08:52:03.364Z,2.93
2018-05-02T08:54:36.765Z,2.47
2018-05-02T08:57:09.365Z,3.00
2018-05-02T08:59:41.989Z,3.00
2018-05-02T09:02:14.596Z,3.00
2018-05-02T09:04:47.235Z,3.20
2018-05-02T09:07:20.608Z,2.87
2018-05-02T09:09:53.231Z,3.00
2018-05-02T09:12:25.832Z,3.13
2018-05-02T09:14:58.468Z,3.30
2018-05-02T09:17:31.063Z,3.10
2018-05-02T09:20:03.700Z,3.40
2018-05-02T09:22:37.063Z,3.30
2018-05-02T09:25:09.706Z,3.27
2018-05-02T09:27:43.071Z,3.47
2018-05-02T09:30:15.696Z,3.13
2018-05-02T09:32:49.074Z,4.00
2018-05-02T09:35:21.704Z,3.77
2018-05-02T09:37:55.072Z,3.27
2018-05-02T09:40:27.711Z,4.00
2018-05-02T09:43:01.098Z,3.80
2018-05-02T09:45:33.724Z,3.30
2018-05-02T09:48:06.334Z,3.57
2018-05-02T09:50:38.969Z,4.10
2018-05-02T09:53:11.604Z,3.70
2018-05-02T09:55:44.236Z,3.30
2018-05-02T09:58:16.920Z,4.03
2018-05-02T10:00:49.485Z,3.33
2018-05-02T10:03:22.097Z,3.53
2018-05-02T10:05:54.720Z,3.07
2018-05-02T10:08:27.319Z,3.30
2018-05-02T10:10:59.952Z,4.00
2018-05-02T10:13:32.551Z,3.20
2018-05-02T10:16:05.185Z,3.07
2018-05-02T10:18:37.793Z,3.27
2018-05-02T10:21:14.115Z,3.77
2018-05-02T10:23:46.719Z,3.20
2018-05-02T10:26:19.435Z,3.37
2018-05-02T10:28:51.987Z,3.73
2018-05-02T10:31:24.623Z,3.50
2018-05-02T10:33:57.222Z,3.20
2018-05-02T10:36:30.620Z,3.67
2018-05-02T10:39:03.236Z,3.50
2018-05-02T10:41:36.620Z,3.37
2018-05-02T10:44:09.470Z,3.80
2018-05-02T10:46:42.312Z,3.30
2018-05-02T10:49:15.713Z,3.50
2018-05-02T10:51:48.368Z,3.30
2018-05-02T10:54:20.975Z,3.73
2018-05-02T10:56:53.626Z,3.10
2018-05-02T10:59:27.008Z,3.17
2018-05-02T11:01:59.638Z,3.80
2018-05-02T11:04:32.244Z,3.37
2018-05-02T11:07:04.873Z,3.53
2018-05-02T11:09:37.503Z,3.07
2018-05-02T11:12:10.150Z,3.57
2018-05-02T11:14:42.756Z,3.80
2018-05-02T11:17:15.381Z,3.70
2018-05-02T11:19:47.999Z,3.90
2018-05-02T11:22:20.632Z,3.37
2018-05-02T11:24:53.233Z,3.37
2018-05-02T11:27:25.860Z,3.43
2018-05-02T11:29:58.467Z,3.70
2018-05-02T11:32:31.108Z,3.80
2018-05-02T11:35:03.712Z,3.50
2018-05-02T11:37:36.337Z,3.83
2018-05-02T11:40:08.939Z,3.07
2018-05-02T11:42:41.563Z,3.10
2018-05-02T11:45:14.202Z,3.70
2018-05-02T11:47:46.815Z,3.40
2018-05-02T11:50:19.429Z,3.33
2018-05-02T11:52:52.072Z,4.07
2018-05-02T11:55:24.663Z,3.50
2018-05-02T11:57:57.289Z,3.30
2018-05-02T12:00:29.905Z,3.87
2018-05-02T12:03:02.546Z,3.40
2018-05-02T12:05:35.148Z,3.43
2018-05-02T12:08:07.772Z,3.80
2018-05-02T12:10:40.379Z,4.23
2018-05-02T12:13:13.768Z,3.47
2018-05-02T12:15:46.369Z,4.10
2018-05-02T12:18:19.007Z,3.97
2018-05-02T12:20:51.596Z,3.90
2018-05-02T12:23:24.231Z,3.50
2018-05-02T12:25:56.828Z,3.93
2018-05-02T12:28:29.450Z,3.47
2018-05-02T12:31:02.049Z,3.70
2018-05-02T12:33:34.671Z,3.67
2018-05-02T12:36:07.272Z,3.70
2018-05-02T12:38:39.909Z,3.40
2018-05-02T12:41:13.272Z,2.70
2018-05-02T12:43:45.947Z,2.77
2018-05-02T12:46:18.548Z,2.97
2018-05-02T12:48:51.182Z,2.60
2018-05-02T12:51:24.562Z,2.90
2018-05-02T12:53:57.184Z,3.00
2018-05-02T12:56:30.557Z,2.80
2018-05-02T12:59:03.197Z,2.77
2018-05-02T13:01:36.568Z,2.70
2018-05-02T13:04:09.189Z,3.07
2018-05-02T13:06:41.788Z,2.53
2018-05-02T13:09:15.173Z,3.00
2018-05-02T13:11:47.777Z,2.60
2018-05-02T13:14:20.401Z,3.00
2018-05-02T13:16:53.000Z,2.83
2018-05-02T13:19:25.637Z,3.00
2018-05-02T13:21:58.275Z,2.70
2018-05-02T13:24:31.864Z,2.80
2018-05-02T13:27:05.239Z,3.17
2018-05-02T13:29:37.862Z,3.07
2018-05-02T13:32:11.225Z,3.07
2018-05-02T13:34:43.858Z,2.77
2018-05-02T13:37:16.456Z,3.07
2018-05-02T13:39:49.106Z,2.97
2018-05-02T13:42:21.723Z,2.70
2018-05-02T13:44:54.348Z,3.30
2018-05-02T13:47:26.956Z,3.73
2018-05-02T13:49:59.575Z,2.93
2018-05-02T13:52:32.180Z,3.33
2018-05-02T13:55:04.827Z,2.97
2018-05-02T13:57:37.436Z,3.03
2018-05-02T14:00:10.060Z,3.10
2018-05-02T14:02:42.672Z,2.90
2018-05-02T14:05:15.308Z,2.70
2018-05-02T14:07:47.915Z,3.13
2018-05-02T14:10:20.540Z,3.53
2018-05-02T14:12:53.915Z,3.20
2018-05-02T14:15:26.562Z,2.77
2018-05-02T14:17:59.169Z,2.90
2018-05-02T14:20:31.812Z,2.50
2018-05-02T14:23:04.452Z,2.67
2018-05-02T14:25:37.072Z,2.40
2018-05-02T14:28:09.680Z,2.40
2018-05-02T14:30:42.316Z,2.10
2018-05-02T14:33:14.923Z,2.40
2018-05-02T14:35:47.571Z,2.17
2018-05-02T14:38:20.218Z,2.07
2018-05-02T14:40:52.820Z,2.03
2018-05-02T14:43:25.419Z,2.50
2018-05-02T14:45:58.041Z,2.57
2018-05-02T14:48:30.641Z,2.30
2018-05-02T14:51:03.293Z,2.20
2018-05-02T14:53:35.901Z,2.20
2018-05-02T14:56:08.523Z,2.43
2018-05-02T14:58:41.129Z,2.63
2018-05-02T15:01:13.756Z,2.00
2018-05-02T15:03:46.377Z,2.20
2018-05-02T15:06:18.996Z,2.23
2018-05-02T15:08:51.644Z,2.10
2018-05-02T15:11:24.284Z,2.20
2018-05-02T15:13:56.887Z,1.90
2018-05-02T15:16:29.516Z,1.93
2018-05-02T15:19:02.116Z,2.30
2018-05-02T15:21:34.738Z,1.60
2018-05-02T15:24:07.367Z,1.97
2018-05-02T15:26:40.109Z,1.90
2018-05-02T15:29:13.516Z,1.90
2018-05-02T15:31:46.172Z,2.20
2018-05-02T15:34:18.781Z,2.13
2018-05-02T15:36:51.400Z,1.80
2018-05-02T15:39:24.003Z,2.20
2018-05-02T15:41:56.676Z,2.00
2018-05-02T15:44:30.052Z,2.07
2018-05-02T15:47:02.685Z,2.20
2018-05-02T15:49:36.052Z,2.77
2018-05-02T15:52:08.706Z,2.83
2018-05-02T15:54:41.337Z,2.50
2018-05-02T15:57:13.983Z,2.13
2018-05-02T15:59:46.587Z,1.93
2018-05-02T16:02:19.241Z,1.90
2018-05-02T16:04:52.793Z,1.80
2018-05-02T16:07:25.407Z,2.00
2018-05-02T16:09:58.028Z,1.70
2018-05-02T16:12:30.661Z,1.70
2018-05-02T16:15:03.264Z,2.63
2018-05-02T16:17:35.896Z,2.00
2018-05-02T16:20:08.502Z,1.80
2018-05-02T16:22:41.129Z,2.07
2018-05-02T16:25:13.728Z,2.00
2018-05-02T16:27:46.421Z,2.30
2018-05-02T16:30:19.004Z,1.77
2018-05-02T16:32:51.636Z,1.97
2018-05-02T16:35:24.319Z,2.60
2018-05-02T16:37:57.026Z,2.50
2018-05-02T16:40:29.629Z,2.30
2018-05-02T16:43:02.275Z,2.93
2018-05-02T16:45:35.879Z,2.40
2018-05-02T16:48:08.499Z,2.13
2018-05-02T16:50:41.106Z,1.87
2018-05-02T16:53:13.783Z,2.03
2018-05-02T16:55:46.449Z,2.83
2018-05-02T16:58:19.108Z,1.87
2018-05-02T17:00:51.716Z,1.90
2018-05-02T17:03:24.341Z,2.20
2018-05-02T17:05:56.971Z,1.93
2018-05-02T17:08:29.580Z,2.00
2018-05-02T17:11:02.184Z,2.50
2018-05-02T17:13:35.659Z,2.60
2018-05-02T17:16:08.319Z,2.37
2018-05-02T17:18:40.945Z,2.63
2018-05-02T17:21:14.523Z,2.57
2018-05-02T17:23:47.156Z,2.83
2018-05-02T17:26:19.766Z,2.30
2018-05-02T17:28:52.387Z,2.60
2018-05-02T17:31:25.001Z,2.60
2018-05-02T17:33:57.626Z,2.50
2018-05-02T17:36:30.252Z,3.13
2018-05-02T17:39:02.885Z,2.00
2018-05-02T17:41:35.486Z,2.43
2018-05-02T17:44:08.124Z,2.77
2018-05-02T17:46:41.739Z,2.70
2018-05-02T17:49:14.389Z,2.77
2018-05-02T17:51:47.020Z,3.20
2018-05-02T17:54:19.748Z,2.73
2018-05-02T17:56:53.561Z,3.10
2018-05-02T17:59:26.287Z,3.27
2018-05-02T18:01:58.889Z,2.77
2018-05-02T18:04:31.550Z,3.30
2018-05-02T18:07:04.176Z,3.07
2018-05-02T18:09:37.572Z,3.40
2018-05-02T18:12:10.191Z,2.97
2018-05-02T18:14:42.827Z,3.17
2018-05-02T18:17:15.437Z,2.50
2018-05-02T18:19:48.084Z,3.20
2018-05-02T18:22:20.691Z,2.60
2018-05-02T18:24:53.356Z,3.73
2018-05-02T18:27:25.983Z,4.17
2018-05-02T18:29:58.604Z,3.93
2018-05-02T18:32:31.225Z,3.43
2018-05-02T18:35:03.871Z,3.83
2018-05-02T18:37:36.514Z,3.97
2018-05-02T18:40:09.152Z,3.70
2018-05-02T18:42:41.769Z,3.37
2018-05-02T18:45:15.165Z,3.40
2018-05-02T18:47:47.767Z,3.27
2018-05-02T18:50:20.388Z,3.20
2018-05-02T18:52:53.024Z,3.07
2018-05-02T18:55:25.684Z,3.37
2018-05-02T18:57:58.342Z,3.73
2018-05-02T19:00:31.740Z,3.13
2018-05-02T19:03:04.343Z,3.33
2018-05-02T19:05:36.980Z,3.03
2018-05-02T19:08:09.579Z,2.80
2018-05-02T19:10:42.202Z,2.90
2018-05-02T19:13:14.817Z,2.73
2018-05-02T19:15:47.472Z,2.63
2018-05-02T19:18:25.823Z,2.90
2018-05-02T19:20:58.452Z,3.10
2018-05-02T19:23:31.056Z,2.47
2018-05-02T19:26:09.305Z,2.80
2018-05-02T19:28:41.912Z,3.60
2018-05-02T19:31:20.168Z,2.90
2018-05-02T19:33:52.767Z,3.33
2018-05-02T19:36:25.388Z,3.47
2018-05-02T19:38:57.983Z,3.27
2018-05-02T19:41:36.215Z,3.00
2018-05-02T19:44:08.827Z,3.20
2018-05-02T19:46:41.452Z,3.17
2018-05-02T19:49:14.060Z,3.57
2018-05-02T19:51:52.318Z,3.20
2018-05-02T19:54:24.920Z,3.63
2018-05-02T19:56:57.560Z,3.20
2018-05-02T19:59:30.160Z,2.90
2018-05-02T20:02:08.561Z,3.90
2018-05-02T20:04:41.923Z,3.40
2018-05-02T20:07:20.189Z,3.03
2018-05-02T20:09:59.170Z,2.93
2018-05-02T20:12:37.409Z,3.20
2018-05-02T20:15:10.015Z,3.20
2018-05-02T20:17:42.662Z,3.27
2018-05-02T20:20:15.300Z,3.00
2018-05-02T20:22:47.948Z,3.10
2018-05-02T20:25:20.569Z,3.07
2018-05-02T20:27:53.213Z,3.37
2018-05-02T20:30:25.820Z,3.10
2018-05-02T20:32:58.435Z,2.80
2018-05-02T20:35:31.040Z,3.00
2018-05-02T20:38:03.667Z,3.20
2018-05-02T20:40:36.263Z,3.10
2018-05-02T20:43:08.904Z,3.07
2018-05-02T20:45:41.551Z,2.77
2018-05-02T20:48:14.196Z,3.10
2018-05-02T20:50:46.787Z,3.40
2018-05-02T20:53:19.424Z,3.00
2018-05-02T20:55:52.024Z,3.37
2018-05-02T20:58:24.645Z,2.70
2018-05-02T21:00:57.296Z,2.60
2018-05-02T21:03:29.915Z,3.23
2018-05-02T21:06:02.533Z,3.20
2018-05-02T21:08:35.200Z,2.80
2018-05-02T21:11:07.806Z,2.93
2018-05-02T21:13:40.432Z,3.43
2018-05-02T21:16:13.028Z,3.93
2018-05-02T21:18:45.647Z,3.17
2018-05-02T21:21:18.252Z,3.43
2018-05-02T21:23:50.864Z,3.07
2018-05-02T21:26:23.464Z,3.40
2018-05-02T21:28:56.112Z,3.33
2018-05-02T21:31:28.713Z,3.10
2018-05-02T21:34:01.332Z,3.30
2018-05-02T21:36:33.940Z,3.60
2018-05-02T21:39:06.580Z,3.50
2018-05-02T21:41:39.180Z,3.90
2018-05-02T21:44:11.821Z,3.10
2018-05-02T21:46:44.421Z,3.60
2018-05-02T21:49:17.814Z,3.17
2018-05-02T21:51:50.408Z,3.27
2018-05-02T21:54:23.163Z,2.73
2018-05-02T21:56:55.704Z,3.47
2018-05-02T21:59:29.088Z,3.47
2018-05-02T22:02:01.686Z,3.40
2018-05-02T22:04:34.313Z,3.40
2018-05-02T22:07:06.912Z,3.60
2018-05-02T22:09:39.527Z,3.37
2018-05-02T22:12:12.132Z,3.50
2018-05-02T22:14:44.759Z,2.87
2018-05-02T22:17:18.140Z,3.40
2018-05-02T22:19:50.773Z,3.17
2018-05-02T22:22:24.167Z,3.00
2018-05-02T22:24:57.568Z,3.00
2018-05-02T22:27:30.176Z,3.53
2018-05-02T22:30:03.632Z,3.10
2018-05-02T22:32:36.235Z,3.40
2018-05-02T22:35:08.870Z,3.63
2018-05-02T22:37:42.240Z,3.13
2018-05-02T22:40:14.888Z,3.10
2018-05-02T22:42:47.480Z,3.20
2018-05-02T22:45:20.092Z,3.30
2018-05-02T22:47:52.686Z,3.70
2018-05-02T22:50:25.305Z,3.43
2018-05-02T22:52:57.916Z,3.50
2018-05-02T22:55:30.539Z,3.20
2018-05-02T22:58:03.143Z,3.40
2018-05-02T23:00:35.780Z,3.40
2018-05-02T23:03:08.380Z,3.80
2018-05-02T23:05:41.000Z,3.20
2018-05-02T23:08:13.602Z,3.70
2018-05-02T23:10:46.229Z,3.53
2018-05-02T23:13:18.832Z,3.60
2018-05-02T23:15:51.455Z,3.80
2018-05-02T23:18:24.151Z,3.43
2018-05-02T23:20:56.751Z,3.40
2018-05-02T23:23:29.356Z,3.37
2018-05-02T23:26:01.977Z,3.40
2018-05-02T23:28:34.577Z,4.53
2018-05-02T23:31:07.220Z,3.60
2018-05-02T23:33:39.821Z,3.47
2018-05-02T23:36:12.461Z,3.23
2018-05-02T23:38:45.069Z,3.13
2018-05-02T23:41:18.537Z,3.60
2018-05-02T23:43:51.085Z,3.63
2018-05-02T23:46:23.700Z,3.63
2018-05-02T23:48:56.302Z,3.77
2018-05-02T23:51:28.945Z,3.67
2018-05-02T23:54:02.312Z,3.47
2018-05-02T23:56:34.954Z,3.47
2018-05-02T23:59:08.321Z,3.30
